Time;durP1;ratioP1;P1;durP2;ratioP2;P2;SDS_P1;SDS_P2;PMS_P1;PMS_P2;Temp;Humidity;BMP_temperature;BMP_pressure;BME280_temperature;BME280_humidity;BME280_pressure;Samples;Min_cycle;Max_cycle;Signal;HPM_P1;HPM_P2
2022/10/31 01:31:57;;;;;;;12.18;7.65;;;15.70;99.90;;;;;;6228687;23;20024;-91
2022/10/31 01:34:23;;;;;;;11.68;7.40;;;15.70;99.90;;;;;;6215488;23;20000;-91
2022/10/31 01:36:51;;;;;;;14.65;7.72;;;15.70;99.90;;;;;;6192295;23;20016;-90
2022/10/31 01:39:18;;;;;;;14.13;7.38;;;15.60;99.90;;;;;;6241970;23;20010;-91
2022/10/31 01:41:49;;;;;;;11.15;6.90;;;15.60;99.90;;;;;;6241735;23;20007;-90
2022/10/31 01:44:14;;;;;;;13.32;8.25;;;15.60;99.90;;;;;;6217194;23;20047;-89
2022/10/31 01:46:51;;;;;;;12.55;8.35;;;15.60;99.90;;;;;;6237633;23;20001;-90
2022/10/31 01:49:33;;;;;;;12.77;7.80;;;15.60;99.90;;;;;;6206210;23;20004;-90
2022/10/31 01:52:07;;;;;;;18.23;7.90;;;15.60;99.90;;;;;;6213084;23;20003;-90
2022/10/31 01:54:37;;;;;;;12.20;7.63;;;15.60;99.90;;;;;;6196802;23;20028;-91
2022/10/31 01:57:05;;;;;;;11.20;7.25;;;15.60;99.90;;;;;;6194361;23;20000;-91
2022/10/31 01:59:35;;;;;;;12.18;8.10;;;15.50;99.90;;;;;;6169049;23;20036;-89
2022/10/31 02:02:01;;;;;;;15.60;8.23;;;15.50;99.90;;;;;;6193665;23;20082;-91
2022/10/31 02:04:27;;;;;;;9.68;6.63;;;15.50;99.90;;;;;;6198096;23;20005;-91
2022/10/31 02:07:02;;;;;;;13.27;8.15;;;15.50;99.90;;;;;;6199452;23;20000;-91
2022/10/31 02:09:30;;;;;;;12.52;7.50;;;15.50;99.90;;;;;;6200748;23;20001;-91
2022/10/31 02:12:00;;;;;;;13.00;7.43;;;15.40;99.90;;;;;;6196890;23;20001;-91
2022/10/31 02:14:29;;;;;;;14.07;8.10;;;15.40;99.90;;;;;;6193897;23;20079;-91
2022/10/31 02:16:55;;;;;;;14.98;8.07;;;15.40;99.90;;;;;;6193556;23;20019;-90
2022/10/31 02:19:54;;;;;;;14.38;7.53;;;15.30;99.90;;;;;;6192836;23;19997;-91
2022/10/31 02:22:27;;;;;;;12.20;7.40;;;15.30;99.90;;;;;;6192870;23;19997;-91
2022/10/31 02:24:59;;;;;;;15.57;8.13;;;15.30;99.90;;;;;;6192506;23;20012;-91
2022/10/31 02:28:06;;;;;;;14.32;8.15;;;15.20;99.90;;;;;;6192642;23;20001;-91
2022/10/31 02:30:46;;;;;;;13.30;7.78;;;15.30;99.90;;;;;;6218715;23;20031;-91
2022/10/31 02:33:26;;;;;;;13.43;8.32;;;15.20;99.90;;;;;;6167661;23;20066;-91
2022/10/31 02:36:00;;;;;;;11.85;7.90;;;15.20;99.90;;;;;;6217573;23;20005;-91
2022/10/31 02:38:50;;;;;;;12.70;7.70;;;15.20;99.90;;;;;;6217473;23;20005;-91
2022/10/31 02:41:21;;;;;;;14.55;8.13;;;15.20;99.90;;;;;;6191964;23;20310;-91
2022/10/31 02:43:59;;;;;;;16.48;8.95;;;15.10;99.90;;;;;;6216789;23;20001;-90
2022/10/31 02:46:34;;;;;;;11.50;7.53;;;15.10;99.90;;;;;;6217527;23;20011;-92
2022/10/31 02:49:08;;;;;;;12.23;8.27;;;15.10;99.90;;;;;;6192028;23;20407;-91
2022/10/31 02:51:34;;;;;;;16.70;9.07;;;15.10;99.90;;;;;;6192310;23;20047;-90
2022/10/31 02:54:00;;;;;;;14.57;8.32;;;15.10;99.90;;;;;;6191995;23;20087;-91
2022/10/31 02:56:25;;;;;;;16.40;9.38;;;15.10;99.90;;;;;;6167434;23;20016;-91
2022/10/31 02:59:01;;;;;;;16.73;9.75;;;15.00;99.90;;;;;;6191996;23;20020;-90
2022/10/31 03:01:39;;;;;;;14.27;9.02;;;15.00;99.90;;;;;;6192284;23;20020;-91
2022/10/31 03:04:17;;;;;;;20.25;9.18;;;15.00;99.90;;;;;;6218682;23;20020;-91
2022/10/31 03:07:01;;;;;;;15.02;9.52;;;15.00;99.90;;;;;;6220060;23;20001;-91
2022/10/31 03:09:36;;;;;;;17.13;9.77;;;15.00;99.90;;;;;;6219818;23;20005;-92
2022/10/31 03:12:35;;;;;;;13.48;8.60;;;14.90;99.90;;;;;;6220114;23;20008;-91
2022/10/31 03:15:21;;;;;;;13.23;9.10;;;14.90;99.90;;;;;;6211968;23;20011;-91
2022/10/31 03:18:20;;;;;;;14.18;9.25;;;14.90;99.90;;;;;;6220203;23;20477;-91
2022/10/31 03:20:52;;;;;;;13.90;9.70;;;14.80;99.90;;;;;;6193619;23;20011;-91
2022/10/31 03:23:21;;;;;;;13.48;9.02;;;14.80;99.90;;;;;;6193572;23;20022;-91
2022/10/31 03:25:48;;;;;;;13.93;8.75;;;14.70;99.90;;;;;;6193563;23;20005;-91
2022/10/31 03:28:18;;;;;;;13.07;8.07;;;14.70;99.90;;;;;;6193177;23;20079;-91
2022/10/31 03:30:46;;;;;;;12.35;8.35;;;14.70;99.90;;;;;;6193404;23;20012;-91
2022/10/31 03:33:19;;;;;;;21.10;8.45;;;14.70;99.90;;;;;;6193759;23;20095;-92
2022/10/31 03:35:47;;;;;;;14.32;8.30;;;14.60;99.90;;;;;;6194038;23;20012;-91
2022/10/31 03:38:15;;;;;;;11.60;8.27;;;14.60;99.90;;;;;;6193453;23;20005;-91
2022/10/31 03:40:45;;;;;;;13.38;8.50;;;14.50;99.90;;;;;;6193548;23;20005;-91
2022/10/31 03:43:16;;;;;;;14.38;8.50;;;14.50;99.90;;;;;;6193794;23;20032;-92
2022/10/31 03:45:45;;;;;;;12.48;8.45;;;14.50;99.90;;;;;;6193561;23;20013;-92
2022/10/31 03:48:13;;;;;;;13.18;8.13;;;14.50;99.90;;;;;;6193464;23;20374;-92
2022/10/31 03:50:59;;;;;;;14.43;8.90;;;14.50;99.90;;;;;;6220046;23;20411;-91
2022/10/31 03:53:34;;;;;;;16.50;8.63;;;14.40;99.90;;;;;;6218643;23;20099;-92
2022/10/31 03:56:12;;;;;;;12.10;8.13;;;14.40;99.90;;;;;;6193323;23;20016;-92
2022/10/31 03:59:04;;;;;;;12.07;8.18;;;14.30;99.90;;;;;;6193791;23;20008;-91
2022/10/31 04:01:33;;;;;;;11.93;7.82;;;14.30;99.90;;;;;;6193551;23;20005;-91
2022/10/31 04:03:59;;;;;;;12.20;8.65;;;14.30;99.90;;;;;;6193017;23;19996;-92
2022/10/31 04:06:26;;;;;;;11.07;8.10;;;14.30;99.90;;;;;;6193699;23;20323;-92
2022/10/31 04:08:56;;;;;;;12.88;8.23;;;14.20;99.90;;;;;;6193559;23;20004;-91
2022/10/31 04:11:28;;;;;;;14.80;8.75;;;14.20;99.90;;;;;;6193287;23;20007;-91
2022/10/31 04:13:56;;;;;;;13.60;8.95;;;14.20;99.90;;;;;;6192897;23;19996;-91
2022/10/31 04:16:24;;;;;;;15.25;8.88;;;14.20;99.90;;;;;;6193057;23;20415;-90
2022/10/31 04:18:50;;;;;;;15.98;8.18;;;14.10;99.90;;;;;;6193050;23;20013;-92
2022/10/31 04:21:16;;;;;;;13.88;8.93;;;14.10;99.90;;;;;;6168586;23;20024;-90
2022/10/31 04:23:42;;;;;;;11.82;8.40;;;14.10;99.90;;;;;;6193303;23;20008;-90
2022/10/31 04:26:11;;;;;;;12.80;8.75;;;14.10;99.90;;;;;;6193467;23;20012;-90
2022/10/31 04:28:37;;;;;;;15.48;8.68;;;14.00;99.90;;;;;;6193173;23;20065;-90
2022/10/31 04:31:03;;;;;;;13.93;8.15;;;14.00;99.90;;;;;;6192463;23;20040;-92
2022/10/31 04:33:28;;;;;;;15.90;8.35;;;14.00;99.90;;;;;;6193669;23;20013;-93
2022/10/31 04:35:54;;;;;;;12.38;8.20;;;14.00;99.90;;;;;;6194921;23;20035;-90
2022/10/31 04:38:20;;;;;;;11.95;8.35;;;14.00;99.90;;;;;;6196554;23;20766;-91
2022/10/31 04:40:46;;;;;;;16.33;8.95;;;13.90;99.90;;;;;;6196151;23;20327;-90
2022/10/31 04:43:12;;;;;;;11.63;8.15;;;13.90;99.90;;;;;;6171142;23;20031;-90
2022/10/31 04:45:38;;;;;;;14.30;8.40;;;13.90;99.90;;;;;;6196873;23;20000;-90
2022/10/31 04:48:04;;;;;;;11.32;8.07;;;13.90;99.90;;;;;;6194140;23;20001;-90
2022/10/31 04:50:30;;;;;;;13.13;8.55;;;13.80;99.90;;;;;;6170967;23;20005;-90
2022/10/31 04:52:56;;;;;;;15.55;8.40;;;13.80;99.90;;;;;;6171151;23;20001;-91
2022/10/31 04:55:21;;;;;;;13.52;8.63;;;13.80;99.90;;;;;;6195502;23;20051;-92
2022/10/31 04:57:49;;;;;;;12.40;8.52;;;13.80;99.90;;;;;;6177375;23;20005;-92
2022/10/31 05:00:17;;;;;;;20.08;8.82;;;13.70;99.90;;;;;;6210678;23;20021;-92
2022/10/31 05:02:45;;;;;;;14.90;8.90;;;13.70;99.90;;;;;;6215581;23;20028;-89
2022/10/31 05:05:12;;;;;;;11.63;8.77;;;13.70;99.90;;;;;;6214468;23;20004;-91
2022/10/31 05:07:42;;;;;;;14.00;9.57;;;13.70;99.90;;;;;;6213861;23;20064;-92
2022/10/31 05:10:11;;;;;;;18.73;9.00;;;13.60;99.90;;;;;;6241267;23;20024;-90
2022/10/31 05:12:37;;;;;;;17.02;9.77;;;13.60;99.90;;;;;;6213829;23;20062;-93
2022/10/31 05:15:04;;;;;;;14.38;9.30;;;13.60;99.90;;;;;;6206340;23;20007;-90
2022/10/31 05:17:32;;;;;;;16.52;9.38;;;13.60;99.90;;;;;;6169054;23;20087;-91
2022/10/31 05:19:57;;;;;;;17.23;10.15;;;13.60;99.90;;;;;;6195414;23;20092;-92
2022/10/31 05:22:23;;;;;;;14.98;9.35;;;13.50;99.90;;;;;;6196881;23;20004;-91
2022/10/31 05:24:49;;;;;;;15.05;9.95;;;13.50;99.90;;;;;;6171625;23;20095;-91
2022/10/31 05:27:14;;;;;;;14.65;9.85;;;13.50;99.90;;;;;;6195540;23;20429;-91
2022/10/31 05:29:40;;;;;;;14.75;9.70;;;13.50;99.90;;;;;;6196613;23;20008;-91
2022/10/31 05:32:29;;;;;;;15.90;10.27;;;13.50;99.90;;;;;;6197557;23;20023;-95
2022/10/31 09:58:50;;;;;;;27.25;19.23;;;15.10;99.90;;;;;;6201271;23;20024;-96
2022/10/31 10:01:31;;;;;;;26.92;19.70;;;15.10;99.90;;;;;;6192707;23;20032;-95
2022/10/31 10:04:10;;;;;;;36.65;22.27;;;15.20;99.90;;;;;;6192003;23;20004;-93
2022/10/31 10:06:43;;;;;;;32.60;22.00;;;15.20;99.90;;;;;;6198091;23;20020;-96
2022/10/31 10:09:10;;;;;;;28.80;19.75;;;15.20;99.90;;;;;;6197310;23;20434;-93
2022/10/31 10:11:55;;;;;;;31.70;21.42;;;15.30;99.90;;;;;;6191768;23;20027;-94
2022/10/31 10:14:59;;;;;;;41.15;22.70;;;15.30;99.90;;;;;;6191326;23;20048;-94
2022/10/31 10:17:39;;;;;;;37.90;19.63;;;15.40;99.90;;;;;;6067565;23;20014;-94
2022/10/31 10:20:10;;;;;;;31.35;19.38;;;15.40;99.90;;;;;;6067505;23;20003;-93
2022/10/31 10:22:42;;;;;;;36.75;21.38;;;15.50;99.90;;;;;;6132106;23;20012;-95
2022/10/31 10:25:10;;;;;;;32.75;19.88;;;15.50;99.90;;;;;;6190734;23;20004;-94
2022/10/31 10:28:02;;;;;;;34.03;21.08;;;15.50;99.90;;;;;;6191259;23;20028;-95
2022/10/31 10:30:41;;;;;;;33.85;21.55;;;15.60;99.90;;;;;;6195686;23;20004;-96
2022/10/31 10:33:18;;;;;;;31.48;20.30;;;15.60;99.90;;;;;;6192345;23;20004;-95
2022/10/31 10:36:37;;;;;;;31.00;20.80;;;15.70;99.90;;;;;;6191214;23;20034;-95
2022/10/31 10:39:41;;;;;;;34.22;21.20;;;15.70;99.90;;;;;;6229385;23;20426;-96
2022/10/31 10:48:14;;;;;;;30.23;19.92;;;15.80;99.90;;;;;;6216498;23;20011;-93
2022/10/31 10:50:47;;;;;;;31.67;18.10;;;15.80;99.90;;;;;;6190918;23;20004;-93
2022/10/31 10:53:35;;;;;;;31.63;18.30;;;15.90;99.90;;;;;;6190495;23;20047;-94
2022/10/31 10:56:46;;;;;;;31.75;18.23;;;15.90;99.90;;;;;;6190254;23;20008;-92
2022/10/31 10:59:17;;;;;;;31.45;20.88;;;15.90;99.90;;;;;;6189181;23;20023;-93
2022/10/31 11:01:48;;;;;;;;;;;16.00;99.90;;;;;;6197755;23;20023;-96
2022/10/31 11:04:36;;;;;;;27.80;17.70;;;16.00;99.90;;;;;;6201308;23;19932;-95
2022/10/31 11:07:12;;;;;;;30.95;17.42;;;16.00;99.90;;;;;;6206565;23;20004;-96
2022/10/31 11:10:12;;;;;;;28.90;18.98;;;16.10;99.90;;;;;;6210131;23;19989;-96
